sensor_id;sensor_type;location;lat;lon;timestamp;temperature;humidity
12438;DHT22;6283;51.330;12.374;2023-08-17T00:02:24;23.40;28.80
12438;DHT22;6283;51.330;12.374;2023-08-17T00:04:49;23.40;29.30
12438;DHT22;6283;51.330;12.374;2023-08-17T00:07:15;23.40;30.90
12438;DHT22;6283;51.330;12.374;2023-08-17T00:09:41;23.40;48.50
12438;DHT22;6283;51.330;12.374;2023-08-17T00:12:07;23.30;35.40
12438;DHT22;6283;51.330;12.374;2023-08-17T00:14:33;23.30;33.20
12438;DHT22;6283;51.330;12.374;2023-08-17T00:16:58;23.30;33.20
12438;DHT22;6283;51.330;12.374;2023-08-17T00:19:24;23.30;34.30
12438;DHT22;6283;51.330;12.374;2023-08-17T00:21:51;23.30;35.10
12438;DHT22;6283;51.330;12.374;2023-08-17T00:24:17;23.30;36.50
12438;DHT22;6283;51.330;12.374;2023-08-17T00:26:43;23.30;38.30
12438;DHT22;6283;51.330;12.374;2023-08-17T00:29:09;23.30;39.30
12438;DHT22;6283;51.330;12.374;2023-08-17T00:31:35;23.30;38.50
12438;DHT22;6283;51.330;12.374;2023-08-17T00:34:00;23.30;36.90
12438;DHT22;6283;51.330;12.374;2023-08-17T00:36:26;23.30;36.00
12438;DHT22;6283;51.330;12.374;2023-08-17T00:38:51;23.30;35.80
12438;DHT22;6283;51.330;12.374;2023-08-17T00:41:17;23.30;37.80
12438;DHT22;6283;51.330;12.374;2023-08-17T00:43:42;23.30;38.40
12438;DHT22;6283;51.330;12.374;2023-08-17T00:46:08;23.30;38.20
12438;DHT22;6283;51.330;12.374;2023-08-17T00:48:34;23.30;38.50
12438;DHT22;6283;51.330;12.374;2023-08-17T00:51:01;23.30;38.30
12438;DHT22;6283;51.330;12.374;2023-08-17T00:53:29;23.30;39.40
12438;DHT22;6283;51.330;12.374;2023-08-17T00:55:55;23.20;40.00
12438;DHT22;6283;51.330;12.374;2023-08-17T00:58:21;23.20;40.30
12438;DHT22;6283;51.330;12.374;2023-08-17T01:00:47;23.20;40.20
12438;DHT22;6283;51.330;12.374;2023-08-17T01:03:13;23.10;43.30
12438;DHT22;6283;51.330;12.374;2023-08-17T01:05:40;23.10;48.30
12438;DHT22;6283;51.330;12.374;2023-08-17T01:08:06;23.00;50.40
12438;DHT22;6283;51.330;12.374;2023-08-17T01:10:41;22.90;55.50
12438;DHT22;6283;51.330;12.374;2023-08-17T01:13:15;22.90;63.40
12438;DHT22;6283;51.330;12.374;2023-08-17T01:15:47;22.90;66.70
12438;DHT22;6283;51.330;12.374;2023-08-17T01:18:29;22.90;67.20
12438;DHT22;6283;51.330;12.374;2023-08-17T01:20:57;22.90;72.50
12438;DHT22;6283;51.330;12.374;2023-08-17T01:23:23;22.80;79.60
12438;DHT22;6283;51.330;12.374;2023-08-17T01:25:49;22.80;82.00
12438;DHT22;6283;51.330;12.374;2023-08-17T01:28:15;22.70;89.90
12438;DHT22;6283;51.330;12.374;2023-08-17T01:30:52;22.70;96.70
12438;DHT22;6283;51.330;12.374;2023-08-17T01:33:27;22.70;99.90
12438;DHT22;6283;51.330;12.374;2023-08-17T01:38:21;22.60;99.90
12438;DHT22;6283;51.330;12.374;2023-08-17T01:40:49;22.60;99.90
12438;DHT22;6283;51.330;12.374;2023-08-17T01:43:17;22.60;99.90
12438;DHT22;6283;51.330;12.374;2023-08-17T01:45:43;22.60;99.90
12438;DHT22;6283;51.330;12.374;2023-08-17T01:48:09;22.60;99.90
12438;DHT22;6283;51.330;12.374;2023-08-17T01:50:35;22.60;99.90
12438;DHT22;6283;51.330;12.374;2023-08-17T01:53:00;22.50;99.90
12438;DHT22;6283;51.330;12.374;2023-08-17T01:55:26;22.50;99.90
12438;DHT22;6283;51.330;12.374;2023-08-17T01:57:52;22.50;99.90
12438;DHT22;6283;51.330;12.374;2023-08-17T02:00:18;22.50;99.90
12438;DHT22;6283;51.330;12.374;2023-08-17T02:02:44;22.40;99.90
12438;DHT22;6283;51.330;12.374;2023-08-17T02:05:09;22.30;99.90
12438;DHT22;6283;51.330;12.374;2023-08-17T02:07:35;22.20;99.90
12438;DHT22;6283;51.330;12.374;2023-08-17T02:10:01;22.10;99.90
12438;DHT22;6283;51.330;12.374;2023-08-17T02:12:26;21.80;99.90
12438;DHT22;6283;51.330;12.374;2023-08-17T02:14:52;21.80;99.90
12438;DHT22;6283;51.330;12.374;2023-08-17T02:17:18;21.70;99.90
12438;DHT22;6283;51.330;12.374;2023-08-17T02:19:44;21.70;99.90
12438;DHT22;6283;51.330;12.374;2023-08-17T02:22:10;21.60;99.90
12438;DHT22;6283;51.330;12.374;2023-08-17T02:24:36;21.50;99.90
12438;DHT22;6283;51.330;12.374;2023-08-17T02:27:02;21.50;99.90
12438;DHT22;6283;51.330;12.374;2023-08-17T02:29:28;21.50;99.90
12438;DHT22;6283;51.330;12.374;2023-08-17T02:31:54;21.40;99.90
12438;DHT22;6283;51.330;12.374;2023-08-17T02:34:19;21.30;99.90
12438;DHT22;6283;51.330;12.374;2023-08-17T02:36:45;21.20;99.90
12438;DHT22;6283;51.330;12.374;2023-08-17T02:39:11;21.10;99.90
12438;DHT22;6283;51.330;12.374;2023-08-17T02:41:36;21.00;99.90
12438;DHT22;6283;51.330;12.374;2023-08-17T02:44:02;20.90;99.90
12438;DHT22;6283;51.330;12.374;2023-08-17T02:46:28;20.80;99.90
12438;DHT22;6283;51.330;12.374;2023-08-17T02:48:54;20.70;99.90
12438;DHT22;6283;51.330;12.374;2023-08-17T02:51:19;20.60;99.90
12438;DHT22;6283;51.330;12.374;2023-08-17T02:53:45;20.50;99.90
12438;DHT22;6283;51.330;12.374;2023-08-17T02:56:10;20.50;99.90
12438;DHT22;6283;51.330;12.374;2023-08-17T02:58:39;20.30;1.00
12438;DHT22;6283;51.330;12.374;2023-08-17T03:01:08;20.30;1.00
12438;DHT22;6283;51.330;12.374;2023-08-17T03:03:34;20.30;1.00
12438;DHT22;6283;51.330;12.374;2023-08-17T03:06:01;20.20;1.00
12438;DHT22;6283;51.330;12.374;2023-08-17T03:08:27;20.10;1.00
12438;DHT22;6283;51.330;12.374;2023-08-17T03:10:52;20.00;1.00
12438;DHT22;6283;51.330;12.374;2023-08-17T03:13:18;19.90;99.90
12438;DHT22;6283;51.330;12.374;2023-08-17T03:15:44;19.90;1.00
12438;DHT22;6283;51.330;12.374;2023-08-17T03:18:09;19.80;1.00
12438;DHT22;6283;51.330;12.374;2023-08-17T03:20:35;19.80;99.90
12438;DHT22;6283;51.330;12.374;2023-08-17T03:23:00;19.70;99.90
12438;DHT22;6283;51.330;12.374;2023-08-17T03:25:26;19.60;99.90
12438;DHT22;6283;51.330;12.374;2023-08-17T03:27:52;19.50;1.00
12438;DHT22;6283;51.330;12.374;2023-08-17T03:30:17;19.50;1.00
12438;DHT22;6283;51.330;12.374;2023-08-17T03:32:43;19.50;99.90
12438;DHT22;6283;51.330;12.374;2023-08-17T03:35:09;19.50;1.00
12438;DHT22;6283;51.330;12.374;2023-08-17T03:37:34;19.50;1.00
12438;DHT22;6283;51.330;12.374;2023-08-17T03:40:00;19.50;99.90
12438;DHT22;6283;51.330;12.374;2023-08-17T03:42:28;19.50;99.90
12438;DHT22;6283;51.330;12.374;2023-08-17T03:44:54;19.50;1.00
12438;DHT22;6283;51.330;12.374;2023-08-17T03:47:20;19.50;99.90
12438;DHT22;6283;51.330;12.374;2023-08-17T03:49:46;19.60;1.00
12438;DHT22;6283;51.330;12.374;2023-08-17T03:52:12;19.70;1.00
12438;DHT22;6283;51.330;12.374;2023-08-17T03:54:38;19.70;99.90
12438;DHT22;6283;51.330;12.374;2023-08-17T03:57:03;19.70;99.90
12438;DHT22;6283;51.330;12.374;2023-08-17T03:59:29;19.80;1.00
12438;DHT22;6283;51.330;12.374;2023-08-17T04:01:54;19.90;1.00
12438;DHT22;6283;51.330;12.374;2023-08-17T04:04:20;19.90;1.00
12438;DHT22;6283;51.330;12.374;2023-08-17T04:06:46;19.90;99.90
12438;DHT22;6283;51.330;12.374;2023-08-17T04:09:11;19.90;1.00
12438;DHT22;6283;51.330;12.374;2023-08-17T04:11:37;19.90;1.00
12438;DHT22;6283;51.330;12.374;2023-08-17T04:14:04;19.80;1.00
12438;DHT22;6283;51.330;12.374;2023-08-17T04:16:29;19.60;99.90
12438;DHT22;6283;51.330;12.374;2023-08-17T04:18:55;19.40;1.00
12438;DHT22;6283;51.330;12.374;2023-08-17T04:21:21;19.20;99.90
12438;DHT22;6283;51.330;12.374;2023-08-17T04:23:47;19.00;99.90
12438;DHT22;6283;51.330;12.374;2023-08-17T04:26:13;18.90;99.90
12438;DHT22;6283;51.330;12.374;2023-08-17T04:28:38;18.90;1.00
12438;DHT22;6283;51.330;12.374;2023-08-17T04:31:04;18.90;1.00
12438;DHT22;6283;51.330;12.374;2023-08-17T04:33:30;19.00;1.00
12438;DHT22;6283;51.330;12.374;2023-08-17T04:35:56;19.00;1.00
12438;DHT22;6283;51.330;12.374;2023-08-17T04:38:21;19.00;1.00
12438;DHT22;6283;51.330;12.374;2023-08-17T04:40:47;19.10;1.00
12438;DHT22;6283;51.330;12.374;2023-08-17T04:43:13;19.10;1.00
12438;DHT22;6283;51.330;12.374;2023-08-17T04:45:39;19.00;1.00
12438;DHT22;6283;51.330;12.374;2023-08-17T04:48:05;19.00;1.00
12438;DHT22;6283;51.330;12.374;2023-08-17T04:50:31;19.00;1.00
12438;DHT22;6283;51.330;12.374;2023-08-17T04:52:57;19.00;1.00
12438;DHT22;6283;51.330;12.374;2023-08-17T04:55:23;19.00;1.00
12438;DHT22;6283;51.330;12.374;2023-08-17T04:57:49;18.90;1.00
12438;DHT22;6283;51.330;12.374;2023-08-17T05:00:15;19.00;1.00
12438;DHT22;6283;51.330;12.374;2023-08-17T05:02:41;18.90;1.00
12438;DHT22;6283;51.330;12.374;2023-08-17T05:05:09;19.00;1.00
12438;DHT22;6283;51.330;12.374;2023-08-17T05:07:34;19.10;1.00
12438;DHT22;6283;51.330;12.374;2023-08-17T05:10:01;19.10;1.00
12438;DHT22;6283;51.330;12.374;2023-08-17T05:12:27;19.10;1.00
12438;DHT22;6283;51.330;12.374;2023-08-17T05:14:52;19.10;1.00
12438;DHT22;6283;51.330;12.374;2023-08-17T05:17:18;19.10;1.00
12438;DHT22;6283;51.330;12.374;2023-08-17T05:19:44;19.10;1.00
12438;DHT22;6283;51.330;12.374;2023-08-17T05:22:11;19.10;1.00
12438;DHT22;6283;51.330;12.374;2023-08-17T05:24:37;19.20;1.00
12438;DHT22;6283;51.330;12.374;2023-08-17T05:27:03;19.20;1.00
12438;DHT22;6283;51.330;12.374;2023-08-17T05:29:28;19.30;1.00
12438;DHT22;6283;51.330;12.374;2023-08-17T05:31:54;19.30;1.00
12438;DHT22;6283;51.330;12.374;2023-08-17T05:34:20;19.40;1.00
12438;DHT22;6283;51.330;12.374;2023-08-17T05:36:45;19.40;1.00
12438;DHT22;6283;51.330;12.374;2023-08-17T05:39:11;19.40;1.00
12438;DHT22;6283;51.330;12.374;2023-08-17T05:41:37;19.50;1.00
12438;DHT22;6283;51.330;12.374;2023-08-17T05:44:02;19.50;1.00
12438;DHT22;6283;51.330;12.374;2023-08-17T05:46:28;19.50;1.00
12438;DHT22;6283;51.330;12.374;2023-08-17T05:48:54;19.60;1.00
12438;DHT22;6283;51.330;12.374;2023-08-17T05:51:19;19.60;1.00
12438;DHT22;6283;51.330;12.374;2023-08-17T05:53:45;19.70;1.00
12438;DHT22;6283;51.330;12.374;2023-08-17T05:56:10;19.70;1.00
12438;DHT22;6283;51.330;12.374;2023-08-17T05:58:36;19.70;1.00
12438;DHT22;6283;51.330;12.374;2023-08-17T06:01:09;19.70;1.00
12438;DHT22;6283;51.330;12.374;2023-08-17T06:03:36;19.70;1.00
12438;DHT22;6283;51.330;12.374;2023-08-17T06:06:03;19.60;1.00
12438;DHT22;6283;51.330;12.374;2023-08-17T06:08:29;19.70;1.00
12438;DHT22;6283;51.330;12.374;2023-08-17T06:10:55;19.70;1.00
12438;DHT22;6283;51.330;12.374;2023-08-17T06:13:20;19.70;1.00
12438;DHT22;6283;51.330;12.374;2023-08-17T06:15:46;19.70;1.00
12438;DHT22;6283;51.330;12.374;2023-08-17T06:18:12;19.80;1.00
12438;DHT22;6283;51.330;12.374;2023-08-17T06:20:38;19.80;1.00
12438;DHT22;6283;51.330;12.374;2023-08-17T06:23:04;19.80;1.00
12438;DHT22;6283;51.330;12.374;2023-08-17T06:25:30;19.90;1.00
12438;DHT22;6283;51.330;12.374;2023-08-17T06:27:55;19.90;1.00
12438;DHT22;6283;51.330;12.374;2023-08-17T06:30:21;19.90;1.00
12438;DHT22;6283;51.330;12.374;2023-08-17T06:32:47;20.00;1.00
12438;DHT22;6283;51.330;12.374;2023-08-17T06:35:12;20.10;1.00
12438;DHT22;6283;51.330;12.374;2023-08-17T06:37:38;20.10;1.00
12438;DHT22;6283;51.330;12.374;2023-08-17T06:40:04;20.20;1.00
12438;DHT22;6283;51.330;12.374;2023-08-17T06:42:34;20.20;1.00
12438;DHT22;6283;51.330;12.374;2023-08-17T06:45:00;20.30;1.00
12438;DHT22;6283;51.330;12.374;2023-08-17T06:47:26;20.40;1.00
12438;DHT22;6283;51.330;12.374;2023-08-17T06:49:51;20.40;1.00
12438;DHT22;6283;51.330;12.374;2023-08-17T06:52:17;20.50;1.00
12438;DHT22;6283;51.330;12.374;2023-08-17T06:54:43;20.50;1.00
12438;DHT22;6283;51.330;12.374;2023-08-17T06:57:08;20.60;1.00
12438;DHT22;6283;51.330;12.374;2023-08-17T06:59:34;20.60;1.00
12438;DHT22;6283;51.330;12.374;2023-08-17T07:02:00;20.70;1.00
12438;DHT22;6283;51.330;12.374;2023-08-17T07:04:26;20.90;1.00
12438;DHT22;6283;51.330;12.374;2023-08-17T07:06:52;20.90;1.00
12438;DHT22;6283;51.330;12.374;2023-08-17T07:09:17;21.00;1.00
12438;DHT22;6283;51.330;12.374;2023-08-17T07:11:44;21.10;1.00
12438;DHT22;6283;51.330;12.374;2023-08-17T07:14:09;21.10;1.00
12438;DHT22;6283;51.330;12.374;2023-08-17T07:16:35;21.10;1.00
12438;DHT22;6283;51.330;12.374;2023-08-17T07:19:01;21.00;1.00
12438;DHT22;6283;51.330;12.374;2023-08-17T07:21:27;21.00;1.00
12438;DHT22;6283;51.330;12.374;2023-08-17T07:23:54;21.10;1.00
12438;DHT22;6283;51.330;12.374;2023-08-17T07:26:20;21.00;1.00
12438;DHT22;6283;51.330;12.374;2023-08-17T07:28:47;21.00;1.00
12438;DHT22;6283;51.330;12.374;2023-08-17T07:31:12;21.10;1.00
12438;DHT22;6283;51.330;12.374;2023-08-17T07:33:39;21.10;1.00
12438;DHT22;6283;51.330;12.374;2023-08-17T07:36:05;21.20;1.00
12438;DHT22;6283;51.330;12.374;2023-08-17T07:38:30;21.20;1.00
12438;DHT22;6283;51.330;12.374;2023-08-17T07:40:56;21.10;1.00
12438;DHT22;6283;51.330;12.374;2023-08-17T07:43:22;21.10;1.00
12438;DHT22;6283;51.330;12.374;2023-08-17T07:45:57;21.20;1.00
12438;DHT22;6283;51.330;12.374;2023-08-17T07:48:23;21.20;1.00
12438;DHT22;6283;51.330;12.374;2023-08-17T07:50:50;21.20;1.00
12438;DHT22;6283;51.330;12.374;2023-08-17T07:53:16;21.20;1.00
12438;DHT22;6283;51.330;12.374;2023-08-17T07:55:42;21.20;1.00
12438;DHT22;6283;51.330;12.374;2023-08-17T07:58:07;21.30;1.00
12438;DHT22;6283;51.330;12.374;2023-08-17T08:00:33;21.30;1.00
12438;DHT22;6283;51.330;12.374;2023-08-17T08:02:59;21.20;1.00
12438;DHT22;6283;51.330;12.374;2023-08-17T08:05:25;21.20;1.00
12438;DHT22;6283;51.330;12.374;2023-08-17T08:07:51;21.20;1.00
12438;DHT22;6283;51.330;12.374;2023-08-17T08:10:16;21.20;1.00
12438;DHT22;6283;51.330;12.374;2023-08-17T08:12:42;21.20;1.00
12438;DHT22;6283;51.330;12.374;2023-08-17T08:15:08;21.30;1.00
12438;DHT22;6283;51.330;12.374;2023-08-17T08:17:33;21.30;1.00
12438;DHT22;6283;51.330;12.374;2023-08-17T08:19:59;21.30;1.00
12438;DHT22;6283;51.330;12.374;2023-08-17T08:22:25;21.30;1.00
12438;DHT22;6283;51.330;12.374;2023-08-17T08:24:50;21.40;1.00
12438;DHT22;6283;51.330;12.374;2023-08-17T08:27:16;21.50;1.00
12438;DHT22;6283;51.330;12.374;2023-08-17T08:29:41;21.50;1.00
12438;DHT22;6283;51.330;12.374;2023-08-17T08:32:07;21.60;1.00
12438;DHT22;6283;51.330;12.374;2023-08-17T08:34:33;21.70;1.00
12438;DHT22;6283;51.330;12.374;2023-08-17T08:36:59;21.80;1.00
12438;DHT22;6283;51.330;12.374;2023-08-17T08:39:27;21.80;1.00
12438;DHT22;6283;51.330;12.374;2023-08-17T08:41:53;21.90;1.00
12438;DHT22;6283;51.330;12.374;2023-08-17T08:44:19;21.90;1.00
12438;DHT22;6283;51.330;12.374;2023-08-17T08:46:45;22.10;1.00
12438;DHT22;6283;51.330;12.374;2023-08-17T08:49:12;22.10;1.00
12438;DHT22;6283;51.330;12.374;2023-08-17T08:51:46;22.30;1.00
12438;DHT22;6283;51.330;12.374;2023-08-17T08:54:14;22.40;1.00
12438;DHT22;6283;51.330;12.374;2023-08-17T08:56:43;22.50;1.00
12438;DHT22;6283;51.330;12.374;2023-08-17T08:59:10;22.60;1.00
12438;DHT22;6283;51.330;12.374;2023-08-17T09:01:36;22.70;1.00
12438;DHT22;6283;51.330;12.374;2023-08-17T09:04:04;22.80;1.00
12438;DHT22;6283;51.330;12.374;2023-08-17T09:06:31;23.00;1.00
12438;DHT22;6283;51.330;12.374;2023-08-17T09:08:57;23.10;1.00
12438;DHT22;6283;51.330;12.374;2023-08-17T09:11:24;23.30;1.00
12438;DHT22;6283;51.330;12.374;2023-08-17T09:13:50;23.40;1.00
12438;DHT22;6283;51.330;12.374;2023-08-17T09:16:15;23.40;1.00
12438;DHT22;6283;51.330;12.374;2023-08-17T09:18:41;23.40;1.00
12438;DHT22;6283;51.330;12.374;2023-08-17T09:21:07;23.50;1.00
12438;DHT22;6283;51.330;12.374;2023-08-17T09:23:33;23.50;1.00
12438;DHT22;6283;51.330;12.374;2023-08-17T09:26:08;23.70;1.00
12438;DHT22;6283;51.330;12.374;2023-08-17T09:28:33;23.70;1.00
12438;DHT22;6283;51.330;12.374;2023-08-17T09:31:01;23.70;1.00
12438;DHT22;6283;51.330;12.374;2023-08-17T09:33:32;23.80;1.00
12438;DHT22;6283;51.330;12.374;2023-08-17T09:35:59;23.90;1.00
12438;DHT22;6283;51.330;12.374;2023-08-17T09:38:26;24.00;1.00
12438;DHT22;6283;51.330;12.374;2023-08-17T09:40:52;24.00;1.00
12438;DHT22;6283;51.330;12.374;2023-08-17T09:43:18;24.20;1.00
12438;DHT22;6283;51.330;12.374;2023-08-17T09:45:46;24.30;1.00
12438;DHT22;6283;51.330;12.374;2023-08-17T09:48:15;24.30;1.00
12438;DHT22;6283;51.330;12.374;2023-08-17T09:50:42;24.40;1.00
12438;DHT22;6283;51.330;12.374;2023-08-17T09:53:12;24.40;1.00
12438;DHT22;6283;51.330;12.374;2023-08-17T09:55:40;24.40;1.00
12438;DHT22;6283;51.330;12.374;2023-08-17T09:58:06;24.50;1.00
12438;DHT22;6283;51.330;12.374;2023-08-17T10:00:34;24.50;99.90
12438;DHT22;6283;51.330;12.374;2023-08-17T10:03:02;24.60;99.90
12438;DHT22;6283;51.330;12.374;2023-08-17T10:05:30;24.60;99.90
12438;DHT22;6283;51.330;12.374;2023-08-17T10:07:59;24.60;99.90
12438;DHT22;6283;51.330;12.374;2023-08-17T10:10:27;24.50;99.90
12438;DHT22;6283;51.330;12.374;2023-08-17T10:15:34;24.60;99.90
12438;DHT22;6283;51.330;12.374;2023-08-17T10:18:42;24.70;99.90
12438;DHT22;6283;51.330;12.374;2023-08-17T10:21:17;24.70;99.90
12438;DHT22;6283;51.330;12.374;2023-08-17T10:23:47;24.80;99.90
12438;DHT22;6283;51.330;12.374;2023-08-17T10:26:13;24.80;57.50
12438;DHT22;6283;51.330;12.374;2023-08-17T10:28:39;24.90;48.20
12438;DHT22;6283;51.330;12.374;2023-08-17T10:31:05;25.00;60.80
12438;DHT22;6283;51.330;12.374;2023-08-17T10:33:32;25.00;1.00
12438;DHT22;6283;51.330;12.374;2023-08-17T10:36:00;25.10;1.00
12438;DHT22;6283;51.330;12.374;2023-08-17T10:38:26;25.10;99.90
12438;DHT22;6283;51.330;12.374;2023-08-17T10:41:12;25.10;1.00
12438;DHT22;6283;51.330;12.374;2023-08-17T10:43:56;25.10;1.00
12438;DHT22;6283;51.330;12.374;2023-08-17T10:46:37;25.20;1.00
12438;DHT22;6283;51.330;12.374;2023-08-17T10:49:04;25.30;99.90
12438;DHT22;6283;51.330;12.374;2023-08-17T10:51:31;25.40;99.90
12438;DHT22;6283;51.330;12.374;2023-08-17T10:53:59;25.50;99.90
12438;DHT22;6283;51.330;12.374;2023-08-17T10:56:29;25.60;99.90
12438;DHT22;6283;51.330;12.374;2023-08-17T10:59:00;25.70;1.00
12438;DHT22;6283;51.330;12.374;2023-08-17T11:01:36;25.80;99.90
12438;DHT22;6283;51.330;12.374;2023-08-17T11:04:16;25.80;1.00
12438;DHT22;6283;51.330;12.374;2023-08-17T11:06:45;25.90;1.00
12438;DHT22;6283;51.330;12.374;2023-08-17T11:09:11;26.00;1.00
12438;DHT22;6283;51.330;12.374;2023-08-17T11:11:37;26.10;99.90
12438;DHT22;6283;51.330;12.374;2023-08-17T11:14:03;26.20;99.90
12438;DHT22;6283;51.330;12.374;2023-08-17T11:16:29;26.30;99.90
12438;DHT22;6283;51.330;12.374;2023-08-17T11:18:55;26.40;99.90
12438;DHT22;6283;51.330;12.374;2023-08-17T11:21:24;26.60;99.90
12438;DHT22;6283;51.330;12.374;2023-08-17T11:23:49;26.70;99.90
12438;DHT22;6283;51.330;12.374;2023-08-17T11:26:18;27.00;99.90
12438;DHT22;6283;51.330;12.374;2023-08-17T11:28:44;27.10;99.90
12438;DHT22;6283;51.330;12.374;2023-08-17T11:31:12;27.20;99.90
12438;DHT22;6283;51.330;12.374;2023-08-17T11:33:39;27.40;99.90
12438;DHT22;6283;51.330;12.374;2023-08-17T11:36:07;27.50;99.90
12438;DHT22;6283;51.330;12.374;2023-08-17T11:38:34;27.70;99.90
12438;DHT22;6283;51.330;12.374;2023-08-17T11:41:01;27.90;99.90
12438;DHT22;6283;51.330;12.374;2023-08-17T11:43:28;28.10;99.90
12438;DHT22;6283;51.330;12.374;2023-08-17T11:45:57;28.20;99.90
12438;DHT22;6283;51.330;12.374;2023-08-17T11:48:23;28.50;99.90
12438;DHT22;6283;51.330;12.374;2023-08-17T11:50:49;28.70;97.30
12438;DHT22;6283;51.330;12.374;2023-08-17T11:53:15;28.80;57.60
12438;DHT22;6283;51.330;12.374;2023-08-17T11:55:41;28.80;45.60
12438;DHT22;6283;51.330;12.374;2023-08-17T11:58:06;29.00;31.70
12438;DHT22;6283;51.330;12.374;2023-08-17T12:00:37;29.30;20.90
12438;DHT22;6283;51.330;12.374;2023-08-17T12:03:05;29.70;1.00
12438;DHT22;6283;51.330;12.374;2023-08-17T12:05:31;29.90;1.00
12438;DHT22;6283;51.330;12.374;2023-08-17T12:07:59;30.00;1.00
12438;DHT22;6283;51.330;12.374;2023-08-17T12:10:28;30.00;1.00
12438;DHT22;6283;51.330;12.374;2023-08-17T12:12:56;30.00;1.00
12438;DHT22;6283;51.330;12.374;2023-08-17T12:15:22;30.10;1.00
12438;DHT22;6283;51.330;12.374;2023-08-17T12:17:48;30.40;1.00
12438;DHT22;6283;51.330;12.374;2023-08-17T12:20:20;30.60;1.00
12438;DHT22;6283;51.330;12.374;2023-08-17T12:22:47;30.90;1.00
12438;DHT22;6283;51.330;12.374;2023-08-17T12:25:13;31.10;1.00
12438;DHT22;6283;51.330;12.374;2023-08-17T12:27:39;31.40;1.00
12438;DHT22;6283;51.330;12.374;2023-08-17T12:30:12;31.70;1.00
12438;DHT22;6283;51.330;12.374;2023-08-17T12:32:38;32.00;1.00
12438;DHT22;6283;51.330;12.374;2023-08-17T12:35:04;32.10;1.00
12438;DHT22;6283;51.330;12.374;2023-08-17T12:37:30;32.40;1.00
12438;DHT22;6283;51.330;12.374;2023-08-17T12:39:55;32.60;1.00
12438;DHT22;6283;51.330;12.374;2023-08-17T12:42:21;32.80;1.00
12438;DHT22;6283;51.330;12.374;2023-08-17T12:44:47;33.00;1.00
12438;DHT22;6283;51.330;12.374;2023-08-17T12:47:12;33.20;1.00
12438;DHT22;6283;51.330;12.374;2023-08-17T12:49:38;33.30;1.00
12438;DHT22;6283;51.330;12.374;2023-08-17T12:52:04;33.30;1.00
12438;DHT22;6283;51.330;12.374;2023-08-17T12:54:29;33.50;1.00
12438;DHT22;6283;51.330;12.374;2023-08-17T12:56:55;33.60;1.00
12438;DHT22;6283;51.330;12.374;2023-08-17T12:59:21;33.60;1.00
12438;DHT22;6283;51.330;12.374;2023-08-17T13:01:46;33.80;1.00
12438;DHT22;6283;51.330;12.374;2023-08-17T13:04:12;34.00;1.00
12438;DHT22;6283;51.330;12.374;2023-08-17T13:06:38;34.30;1.00
12438;DHT22;6283;51.330;12.374;2023-08-17T13:09:05;34.50;1.00
12438;DHT22;6283;51.330;12.374;2023-08-17T13:11:31;34.70;1.00
12438;DHT22;6283;51.330;12.374;2023-08-17T13:13:57;34.90;1.00
12438;DHT22;6283;51.330;12.374;2023-08-17T13:16:23;34.80;1.00
12438;DHT22;6283;51.330;12.374;2023-08-17T13:18:48;34.70;1.00
12438;DHT22;6283;51.330;12.374;2023-08-17T13:21:14;34.80;1.00
12438;DHT22;6283;51.330;12.374;2023-08-17T13:23:41;34.80;1.00
12438;DHT22;6283;51.330;12.374;2023-08-17T13:26:07;34.90;1.00
12438;DHT22;6283;51.330;12.374;2023-08-17T13:28:32;35.10;1.00
12438;DHT22;6283;51.330;12.374;2023-08-17T13:30:58;34.90;1.00
12438;DHT22;6283;51.330;12.374;2023-08-17T13:33:24;34.70;1.00
12438;DHT22;6283;51.330;12.374;2023-08-17T13:35:49;34.40;1.00
12438;DHT22;6283;51.330;12.374;2023-08-17T13:38:16;34.10;1.00
12438;DHT22;6283;51.330;12.374;2023-08-17T13:40:42;33.80;1.00
12438;DHT22;6283;51.330;12.374;2023-08-17T13:43:07;33.90;1.00
12438;DHT22;6283;51.330;12.374;2023-08-17T13:45:38;34.10;1.00
12438;DHT22;6283;51.330;12.374;2023-08-17T13:48:05;34.40;1.00
12438;DHT22;6283;51.330;12.374;2023-08-17T13:50:31;34.50;1.00
12438;DHT22;6283;51.330;12.374;2023-08-17T13:52:56;34.40;1.00
12438;DHT22;6283;51.330;12.374;2023-08-17T13:55:26;34.20;1.00
12438;DHT22;6283;51.330;12.374;2023-08-17T13:57:51;33.80;1.00
12438;DHT22;6283;51.330;12.374;2023-08-17T14:00:18;33.40;1.00
12438;DHT22;6283;51.330;12.374;2023-08-17T14:02:44;33.10;1.00
12438;DHT22;6283;51.330;12.374;2023-08-17T14:05:09;32.80;1.00
12438;DHT22;6283;51.330;12.374;2023-08-17T14:07:35;32.50;1.00
12438;DHT22;6283;51.330;12.374;2023-08-17T14:10:01;32.20;1.00
12438;DHT22;6283;51.330;12.374;2023-08-17T14:12:26;32.00;1.00
12438;DHT22;6283;51.330;12.374;2023-08-17T14:14:52;31.80;1.00
12438;DHT22;6283;51.330;12.374;2023-08-17T14:17:18;31.70;1.00
12438;DHT22;6283;51.330;12.374;2023-08-17T14:19:43;31.50;1.00
12438;DHT22;6283;51.330;12.374;2023-08-17T14:22:09;31.40;1.00
12438;DHT22;6283;51.330;12.374;2023-08-17T14:24:34;31.30;1.00
12438;DHT22;6283;51.330;12.374;2023-08-17T14:27:00;31.10;1.00
12438;DHT22;6283;51.330;12.374;2023-08-17T14:29:26;31.10;1.00
12438;DHT22;6283;51.330;12.374;2023-08-17T14:31:51;31.00;1.00
12438;DHT22;6283;51.330;12.374;2023-08-17T14:34:19;30.80;1.00
12438;DHT22;6283;51.330;12.374;2023-08-17T14:36:46;30.70;1.00
12438;DHT22;6283;51.330;12.374;2023-08-17T14:39:12;30.60;1.00
12438;DHT22;6283;51.330;12.374;2023-08-17T14:41:38;30.40;1.00
12438;DHT22;6283;51.330;12.374;2023-08-17T14:44:04;30.30;1.00
12438;DHT22;6283;51.330;12.374;2023-08-17T14:46:29;30.20;1.00
12438;DHT22;6283;51.330;12.374;2023-08-17T14:48:55;30.20;1.00
12438;DHT22;6283;51.330;12.374;2023-08-17T14:51:21;30.10;1.00
12438;DHT22;6283;51.330;12.374;2023-08-17T14:53:46;30.00;1.00
12438;DHT22;6283;51.330;12.374;2023-08-17T14:56:12;30.00;1.00
12438;DHT22;6283;51.330;12.374;2023-08-17T14:58:38;29.90;1.00
12438;DHT22;6283;51.330;12.374;2023-08-17T15:01:03;29.80;1.00
12438;DHT22;6283;51.330;12.374;2023-08-17T15:03:29;29.70;1.00
12438;DHT22;6283;51.330;12.374;2023-08-17T15:05:55;29.60;1.00
12438;DHT22;6283;51.330;12.374;2023-08-17T15:08:20;29.50;1.00
12438;DHT22;6283;51.330;12.374;2023-08-17T15:10:46;29.40;1.00
12438;DHT22;6283;51.330;12.374;2023-08-17T15:13:14;29.40;1.00
12438;DHT22;6283;51.330;12.374;2023-08-17T15:15:40;29.30;1.00
12438;DHT22;6283;51.330;12.374;2023-08-17T15:18:06;29.20;1.00
12438;DHT22;6283;51.330;12.374;2023-08-17T15:20:32;29.00;1.00
12438;DHT22;6283;51.330;12.374;2023-08-17T15:22:57;28.90;1.00
12438;DHT22;6283;51.330;12.374;2023-08-17T15:25:23;28.80;1.00
12438;DHT22;6283;51.330;12.374;2023-08-17T15:27:48;28.60;1.00
12438;DHT22;6283;51.330;12.374;2023-08-17T15:30:14;28.50;1.00
12438;DHT22;6283;51.330;12.374;2023-08-17T15:32:40;28.30;1.00
12438;DHT22;6283;51.330;12.374;2023-08-17T15:35:06;28.20;1.00
12438;DHT22;6283;51.330;12.374;2023-08-17T15:37:32;28.10;1.00
12438;DHT22;6283;51.330;12.374;2023-08-17T15:39:58;28.00;1.00
12438;DHT22;6283;51.330;12.374;2023-08-17T15:42:24;27.90;1.00